sensor_id;sensor_type;location;lat;lon;timestamp;temperature;humidity
32594;DHT22;19018;49.046;9.140;2022-07-04T00:02:14;22.60;49.50
32594;DHT22;19018;49.046;9.140;2022-07-04T00:04:39;22.60;49.60
32594;DHT22;19018;49.046;9.140;2022-07-04T00:07:05;22.50;49.50
32594;DHT22;19018;49.046;9.140;2022-07-04T00:09:30;22.60;49.60
32594;DHT22;19018;49.046;9.140;2022-07-04T00:11:56;22.50;49.60
32594;DHT22;19018;49.046;9.140;2022-07-04T00:14:21;22.50;49.60
32594;DHT22;19018;49.046;9.140;2022-07-04T00:16:47;22.50;49.60
32594;DHT22;19018;49.046;9.140;2022-07-04T00:19:13;22.50;49.60
32594;DHT22;19018;49.046;9.140;2022-07-04T00:21:38;22.50;49.60
32594;DHT22;19018;49.046;9.140;2022-07-04T00:24:04;22.50;49.60
32594;DHT22;19018;49.046;9.140;2022-07-04T00:26:30;22.50;49.70
32594;DHT22;19018;49.046;9.140;2022-07-04T00:28:55;22.40;49.60
32594;DHT22;19018;49.046;9.140;2022-07-04T00:31:21;22.40;49.60
32594;DHT22;19018;49.046;9.140;2022-07-04T00:33:46;22.40;49.70
32594;DHT22;19018;49.046;9.140;2022-07-04T00:36:12;22.40;49.70
32594;DHT22;19018;49.046;9.140;2022-07-04T00:38:38;22.40;49.70
32594;DHT22;19018;49.046;9.140;2022-07-04T00:41:03;22.40;49.70
32594;DHT22;19018;49.046;9.140;2022-07-04T00:43:29;22.40;49.70
32594;DHT22;19018;49.046;9.140;2022-07-04T00:45:55;22.30;49.70
32594;DHT22;19018;49.046;9.140;2022-07-04T00:48:20;22.40;49.80
32594;DHT22;19018;49.046;9.140;2022-07-04T00:50:46;22.30;49.80
32594;DHT22;19018;49.046;9.140;2022-07-04T00:53:15;22.40;49.80
32594;DHT22;19018;49.046;9.140;2022-07-04T00:55:41;22.30;49.80
32594;DHT22;19018;49.046;9.140;2022-07-04T00:58:07;22.30;49.80
32594;DHT22;19018;49.046;9.140;2022-07-04T01:00:34;22.30;49.80
32594;DHT22;19018;49.046;9.140;2022-07-04T01:02:59;22.30;49.90
32594;DHT22;19018;49.046;9.140;2022-07-04T01:05:25;22.20;49.80
32594;DHT22;19018;49.046;9.140;2022-07-04T01:07:50;22.20;49.80
32594;DHT22;19018;49.046;9.140;2022-07-04T01:10:16;22.20;49.80
32594;DHT22;19018;49.046;9.140;2022-07-04T01:12:42;22.20;49.90
32594;DHT22;19018;49.046;9.140;2022-07-04T01:15:07;22.20;49.90
32594;DHT22;19018;49.046;9.140;2022-07-04T01:17:34;22.20;49.90
32594;DHT22;19018;49.046;9.140;2022-07-04T01:19:59;22.20;49.90
32594;DHT22;19018;49.046;9.140;2022-07-04T01:22:25;22.10;49.90
32594;DHT22;19018;49.046;9.140;2022-07-04T01:24:51;22.10;49.90
32594;DHT22;19018;49.046;9.140;2022-07-04T01:27:17;22.10;49.90
32594;DHT22;19018;49.046;9.140;2022-07-04T01:32:09;22.10;50.00
32594;DHT22;19018;49.046;9.140;2022-07-04T01:34:35;22.10;50.00
32594;DHT22;19018;49.046;9.140;2022-07-04T01:37:00;22.00;50.00
32594;DHT22;19018;49.046;9.140;2022-07-04T01:39:30;22.00;50.00
32594;DHT22;19018;49.046;9.140;2022-07-04T01:41:55;22.00;50.00
32594;DHT22;19018;49.046;9.140;2022-07-04T01:44:21;21.90;49.90
32594;DHT22;19018;49.046;9.140;2022-07-04T01:46:46;21.90;49.90
32594;DHT22;19018;49.046;9.140;2022-07-04T01:49:12;21.90;50.00
32594;DHT22;19018;49.046;9.140;2022-07-04T01:51:45;21.90;50.00
32594;DHT22;19018;49.046;9.140;2022-07-04T01:54:10;21.80;49.90
32594;DHT22;19018;49.046;9.140;2022-07-04T01:56:36;21.80;49.90
32594;DHT22;19018;49.046;9.140;2022-07-04T01:59:01;21.80;49.90
32594;DHT22;19018;49.046;9.140;2022-07-04T02:01:29;21.80;49.90
32594;DHT22;19018;49.046;9.140;2022-07-04T02:03:55;21.70;49.90
32594;DHT22;19018;49.046;9.140;2022-07-04T02:06:20;21.70;49.90
32594;DHT22;19018;49.046;9.140;2022-07-04T02:08:46;21.70;50.00
32594;DHT22;19018;49.046;9.140;2022-07-04T02:11:30;21.70;50.00
32594;DHT22;19018;49.046;9.140;2022-07-04T02:14:15;21.60;50.00
32594;DHT22;19018;49.046;9.140;2022-07-04T02:16:41;21.60;50.00
32594;DHT22;19018;49.046;9.140;2022-07-04T02:19:07;21.60;50.00
32594;DHT22;19018;49.046;9.140;2022-07-04T02:23:58;21.50;50.00
32594;DHT22;19018;49.046;9.140;2022-07-04T02:26:24;21.50;50.00
32594;DHT22;19018;49.046;9.140;2022-07-04T02:28:50;21.50;50.10
32594;DHT22;19018;49.046;9.140;2022-07-04T02:31:16;21.40;50.00
32594;DHT22;19018;49.046;9.140;2022-07-04T02:33:42;21.40;50.00
32594;DHT22;19018;49.046;9.140;2022-07-04T02:36:07;21.40;50.10
32594;DHT22;19018;49.046;9.140;2022-07-04T02:38:33;21.40;50.10
32594;DHT22;19018;49.046;9.140;2022-07-04T02:40:59;21.30;50.10
32594;DHT22;19018;49.046;9.140;2022-07-04T02:43:24;21.30;50.00
32594;DHT22;19018;49.046;9.140;2022-07-04T02:48:15;21.30;50.10
32594;DHT22;19018;49.046;9.140;2022-07-04T02:50:41;21.20;50.00
32594;DHT22;19018;49.046;9.140;2022-07-04T02:53:07;21.20;50.00
32594;DHT22;19018;49.046;9.140;2022-07-04T02:55:32;21.20;50.00
32594;DHT22;19018;49.046;9.140;2022-07-04T02:57:58;21.20;50.10
32594;DHT22;19018;49.046;9.140;2022-07-04T03:00:23;21.10;50.10
32594;DHT22;19018;49.046;9.140;2022-07-04T03:02:49;21.10;50.10
32594;DHT22;19018;49.046;9.140;2022-07-04T03:05:15;21.10;50.10
32594;DHT22;19018;49.046;9.140;2022-07-04T03:07:40;21.00;50.20
32594;DHT22;19018;49.046;9.140;2022-07-04T03:10:06;21.00;50.20
32594;DHT22;19018;49.046;9.140;2022-07-04T03:12:32;21.00;50.20
32594;DHT22;19018;49.046;9.140;2022-07-04T03:14:57;21.00;50.20
32594;DHT22;19018;49.046;9.140;2022-07-04T03:17:25;21.00;50.20
32594;DHT22;19018;49.046;9.140;2022-07-04T03:19:51;20.90;50.20
32594;DHT22;19018;49.046;9.140;2022-07-04T03:22:16;20.90;50.20
32594;DHT22;19018;49.046;9.140;2022-07-04T03:24:42;20.90;50.20
32594;DHT22;19018;49.046;9.140;2022-07-04T03:29:33;20.90;50.10
32594;DHT22;19018;49.046;9.140;2022-07-04T03:31:59;20.80;50.10
32594;DHT22;19018;49.046;9.140;2022-07-04T03:34:24;20.80;50.20
32594;DHT22;19018;49.046;9.140;2022-07-04T03:36:50;20.70;50.20
32594;DHT22;19018;49.046;9.140;2022-07-04T03:39:16;20.70;50.20
32594;DHT22;19018;49.046;9.140;2022-07-04T03:41:41;20.60;50.20
32594;DHT22;19018;49.046;9.140;2022-07-04T03:44:07;20.60;50.20
32594;DHT22;19018;49.046;9.140;2022-07-04T03:46:32;20.60;50.20
32594;DHT22;19018;49.046;9.140;2022-07-04T03:48:58;20.60;50.20
32594;DHT22;19018;49.046;9.140;2022-07-04T03:51:24;20.60;50.20
32594;DHT22;19018;49.046;9.140;2022-07-04T03:53:50;20.50;50.20
32594;DHT22;19018;49.046;9.140;2022-07-04T03:56:16;20.50;50.30
32594;DHT22;19018;49.046;9.140;2022-07-04T03:58:41;20.50;50.30
32594;DHT22;19018;49.046;9.140;2022-07-04T04:01:17;20.40;50.20
32594;DHT22;19018;49.046;9.140;2022-07-04T04:03:43;20.40;50.30
32594;DHT22;19018;49.046;9.140;2022-07-04T04:06:27;20.40;50.30
32594;DHT22;19018;49.046;9.140;2022-07-04T04:08:53;20.30;50.20
32594;DHT22;19018;49.046;9.140;2022-07-04T04:11:19;20.30;50.30
32594;DHT22;19018;49.046;9.140;2022-07-04T04:13:44;20.30;50.30
32594;DHT22;19018;49.046;9.140;2022-07-04T04:18:36;20.20;50.20
32594;DHT22;19018;49.046;9.140;2022-07-04T04:21:02;20.20;50.30
32594;DHT22;19018;49.046;9.140;2022-07-04T04:25:54;20.10;50.30
32594;DHT22;19018;49.046;9.140;2022-07-04T04:28:19;20.10;50.30
32594;DHT22;19018;49.046;9.140;2022-07-04T04:30:45;20.00;50.30
32594;DHT22;19018;49.046;9.140;2022-07-04T04:33:11;20.00;50.30
32594;DHT22;19018;49.046;9.140;2022-07-04T04:35:37;20.00;50.30
32594;DHT22;19018;49.046;9.140;2022-07-04T04:38:03;20.00;50.40
32594;DHT22;19018;49.046;9.140;2022-07-04T04:40:28;20.00;50.40
32594;DHT22;19018;49.046;9.140;2022-07-04T04:42:55;20.00;50.40
32594;DHT22;19018;49.046;9.140;2022-07-04T04:45:21;19.90;50.40
32594;DHT22;19018;49.046;9.140;2022-07-04T04:47:46;19.90;50.40
32594;DHT22;19018;49.046;9.140;2022-07-04T04:50:12;19.90;50.50
32594;DHT22;19018;49.046;9.140;2022-07-04T04:52:40;19.90;50.50
32594;DHT22;19018;49.046;9.140;2022-07-04T04:55:06;19.90;50.50
32594;DHT22;19018;49.046;9.140;2022-07-04T04:57:31;19.90;50.50
32594;DHT22;19018;49.046;9.140;2022-07-04T04:59:57;19.80;50.50
32594;DHT22;19018;49.046;9.140;2022-07-04T05:02:22;19.90;50.60
32594;DHT22;19018;49.046;9.140;2022-07-04T05:04:48;19.80;50.60
32594;DHT22;19018;49.046;9.140;2022-07-04T05:07:14;19.80;50.60
32594;DHT22;19018;49.046;9.140;2022-07-04T05:09:39;19.80;50.70
32594;DHT22;19018;49.046;9.140;2022-07-04T05:12:05;19.80;50.70
32594;DHT22;19018;49.046;9.140;2022-07-04T05:14:30;19.80;50.70
32594;DHT22;19018;49.046;9.140;2022-07-04T05:16:56;19.90;50.70
32594;DHT22;19018;49.046;9.140;2022-07-04T05:19:21;19.90;50.70
32594;DHT22;19018;49.046;9.140;2022-07-04T05:21:47;19.90;50.70
32594;DHT22;19018;49.046;9.140;2022-07-04T05:24:13;20.00;50.80
32594;DHT22;19018;49.046;9.140;2022-07-04T05:26:38;19.90;50.80
32594;DHT22;19018;49.046;9.140;2022-07-04T05:29:04;20.00;51.00
32594;DHT22;19018;49.046;9.140;2022-07-04T05:31:29;20.00;51.00
32594;DHT22;19018;49.046;9.140;2022-07-04T05:33:55;20.00;51.10
32594;DHT22;19018;49.046;9.140;2022-07-04T05:36:24;20.00;51.10
32594;DHT22;19018;49.046;9.140;2022-07-04T05:38:50;21.20;51.70
32594;DHT22;19018;49.046;9.140;2022-07-04T05:41:15;20.10;51.10
32594;DHT22;19018;49.046;9.140;2022-07-04T05:43:41;20.10;51.20
32594;DHT22;19018;49.046;9.140;2022-07-04T05:46:07;20.10;51.40
32594;DHT22;19018;49.046;9.140;2022-07-04T05:48:32;20.20;51.40
32594;DHT22;19018;49.046;9.140;2022-07-04T05:50:58;20.20;51.50
32594;DHT22;19018;49.046;9.140;2022-07-04T05:53:23;20.20;51.50
32594;DHT22;19018;49.046;9.140;2022-07-04T05:55:49;20.30;51.50
32594;DHT22;19018;49.046;9.140;2022-07-04T05:58:14;20.30;51.50
32594;DHT22;19018;49.046;9.140;2022-07-04T06:00:41;20.40;51.60
32594;DHT22;19018;49.046;9.140;2022-07-04T06:03:07;20.40;51.60
32594;DHT22;19018;49.046;9.140;2022-07-04T06:05:33;20.50;51.70
32594;DHT22;19018;49.046;9.140;2022-07-04T06:07:58;20.50;51.70
32594;DHT22;19018;49.046;9.140;2022-07-04T06:10:24;20.60;51.80
32594;DHT22;19018;49.046;9.140;2022-07-04T06:12:49;20.60;52.30
32594;DHT22;19018;49.046;9.140;2022-07-04T06:15:15;20.60;52.30
32594;DHT22;19018;49.046;9.140;2022-07-04T06:17:43;20.70;51.90
32594;DHT22;19018;49.046;9.140;2022-07-04T06:20:08;20.70;52.00
32594;DHT22;19018;49.046;9.140;2022-07-04T06:25:07;20.90;52.10
32594;DHT22;19018;49.046;9.140;2022-07-04T06:27:35;20.90;52.10
32594;DHT22;19018;49.046;9.140;2022-07-04T06:30:00;20.90;52.10
32594;DHT22;19018;49.046;9.140;2022-07-04T06:32:26;21.00;52.20
32594;DHT22;19018;49.046;9.140;2022-07-04T06:34:51;21.10;52.30
32594;DHT22;19018;49.046;9.140;2022-07-04T06:37:36;21.10;52.20
32594;DHT22;19018;49.046;9.140;2022-07-04T06:40:01;21.20;52.80
32594;DHT22;19018;49.046;9.140;2022-07-04T06:42:27;21.30;52.30
32594;DHT22;19018;49.046;9.140;2022-07-04T06:44:52;21.30;52.30
32594;DHT22;19018;49.046;9.140;2022-07-04T06:47:18;21.40;52.40
32594;DHT22;19018;49.046;9.140;2022-07-04T06:49:44;21.40;52.40
32594;DHT22;19018;49.046;9.140;2022-07-04T06:52:09;21.50;52.50
32594;DHT22;19018;49.046;9.140;2022-07-04T06:54:35;21.50;52.50
32594;DHT22;19018;49.046;9.140;2022-07-04T06:57:00;21.60;52.60
32594;DHT22;19018;49.046;9.140;2022-07-04T06:59:26;21.70;52.70
32594;DHT22;19018;49.046;9.140;2022-07-04T07:01:51;21.70;52.80
32594;DHT22;19018;49.046;9.140;2022-07-04T07:04:17;21.70;53.50
32594;DHT22;19018;49.046;9.140;2022-07-04T07:06:42;21.90;52.90
32594;DHT22;19018;49.046;9.140;2022-07-04T07:09:08;22.00;53.10
32594;DHT22;19018;49.046;9.140;2022-07-04T07:11:33;22.00;53.10
32594;DHT22;19018;49.046;9.140;2022-07-04T07:13:59;22.10;53.00
32594;DHT22;19018;49.046;9.140;2022-07-04T07:16:25;22.20;53.10
32594;DHT22;19018;49.046;9.140;2022-07-04T07:18:50;22.20;53.80
32594;DHT22;19018;49.046;9.140;2022-07-04T07:21:16;22.30;53.20
32594;DHT22;19018;49.046;9.140;2022-07-04T07:23:42;22.40;53.20
32594;DHT22;19018;49.046;9.140;2022-07-04T07:26:07;22.50;53.30
32594;DHT22;19018;49.046;9.140;2022-07-04T07:28:33;22.50;53.20
32594;DHT22;19018;49.046;9.140;2022-07-04T07:31:00;22.60;53.80
32594;DHT22;19018;49.046;9.140;2022-07-04T07:33:25;22.60;53.20
32594;DHT22;19018;49.046;9.140;2022-07-04T07:35:51;22.70;53.70
32594;DHT22;19018;49.046;9.140;2022-07-04T07:38:17;22.80;53.20
32594;DHT22;19018;49.046;9.140;2022-07-04T07:40:42;22.90;53.20
32594;DHT22;19018;49.046;9.140;2022-07-04T07:43:08;22.90;53.20
32594;DHT22;19018;49.046;9.140;2022-07-04T07:45:33;23.00;53.30
32594;DHT22;19018;49.046;9.140;2022-07-04T07:47:59;23.10;53.80
32594;DHT22;19018;49.046;9.140;2022-07-04T07:50:25;23.20;53.50
32594;DHT22;19018;49.046;9.140;2022-07-04T07:52:50;23.20;53.40
32594;DHT22;19018;49.046;9.140;2022-07-04T07:55:16;23.30;53.40
32594;DHT22;19018;49.046;9.140;2022-07-04T07:57:41;23.40;53.40
32594;DHT22;19018;49.046;9.140;2022-07-04T08:00:07;23.50;53.30
32594;DHT22;19018;49.046;9.140;2022-07-04T08:02:35;23.50;53.30
32594;DHT22;19018;49.046;9.140;2022-07-04T08:05:20;23.50;53.30
32594;DHT22;19018;49.046;9.140;2022-07-04T08:07:46;23.50;53.30
32594;DHT22;19018;49.046;9.140;2022-07-04T08:10:11;23.70;53.40
32594;DHT22;19018;49.046;9.140;2022-07-04T08:12:37;23.70;53.40
32594;DHT22;19018;49.046;9.140;2022-07-04T08:15:03;23.80;53.40
32594;DHT22;19018;49.046;9.140;2022-07-04T08:17:28;23.80;53.90
32594;DHT22;19018;49.046;9.140;2022-07-04T08:19:54;23.90;53.40
32594;DHT22;19018;49.046;9.140;2022-07-04T08:22:20;23.90;53.30
32594;DHT22;19018;49.046;9.140;2022-07-04T08:24:45;24.00;53.40
32594;DHT22;19018;49.046;9.140;2022-07-04T08:27:11;24.10;53.40
32594;DHT22;19018;49.046;9.140;2022-07-04T08:29:37;24.10;53.40
32594;DHT22;19018;49.046;9.140;2022-07-04T08:32:02;24.10;53.40
32594;DHT22;19018;49.046;9.140;2022-07-04T08:34:28;24.20;54.00
32594;DHT22;19018;49.046;9.140;2022-07-04T08:36:54;24.20;53.40
32594;DHT22;19018;49.046;9.140;2022-07-04T08:39:19;24.30;53.70
32594;DHT22;19018;49.046;9.140;2022-07-04T08:41:45;24.40;53.60
32594;DHT22;19018;49.046;9.140;2022-07-04T08:44:10;24.40;53.60
32594;DHT22;19018;49.046;9.140;2022-07-04T08:46:40;24.50;54.20
32594;DHT22;19018;49.046;9.140;2022-07-04T08:49:27;24.60;53.80
32594;DHT22;19018;49.046;9.140;2022-07-04T08:51:58;24.70;53.90
32594;DHT22;19018;49.046;9.140;2022-07-04T08:54:24;24.80;53.90
32594;DHT22;19018;49.046;9.140;2022-07-04T08:57:08;24.90;54.00
32594;DHT22;19018;49.046;9.140;2022-07-04T08:59:53;24.90;54.00
32594;DHT22;19018;49.046;9.140;2022-07-04T09:02:20;25.00;54.50
32594;DHT22;19018;49.046;9.140;2022-07-04T09:04:47;25.20;54.00
32594;DHT22;19018;49.046;9.140;2022-07-04T09:07:14;25.30;54.00
32594;DHT22;19018;49.046;9.140;2022-07-04T09:09:40;25.30;54.00
32594;DHT22;19018;49.046;9.140;2022-07-04T09:12:05;25.40;54.00
32594;DHT22;19018;49.046;9.140;2022-07-04T09:14:31;25.50;54.00
32594;DHT22;19018;49.046;9.140;2022-07-04T09:16:58;25.50;54.00
32594;DHT22;19018;49.046;9.140;2022-07-04T09:19:23;25.70;54.10
32594;DHT22;19018;49.046;9.140;2022-07-04T09:21:49;25.70;54.70
32594;DHT22;19018;49.046;9.140;2022-07-04T09:24:15;25.80;54.00
32594;DHT22;19018;49.046;9.140;2022-07-04T09:26:43;25.80;54.00
32594;DHT22;19018;49.046;9.140;2022-07-04T09:29:09;25.90;54.00
32594;DHT22;19018;49.046;9.140;2022-07-04T09:31:35;25.90;53.90
32594;DHT22;19018;49.046;9.140;2022-07-04T09:34:03;26.00;53.90
32594;DHT22;19018;49.046;9.140;2022-07-04T09:36:32;26.00;54.40
32594;DHT22;19018;49.046;9.140;2022-07-04T09:41:31;26.10;54.40
32594;DHT22;19018;49.046;9.140;2022-07-04T09:46:26;26.30;53.70
32594;DHT22;19018;49.046;9.140;2022-07-04T09:48:52;26.30;53.80
32594;DHT22;19018;49.046;9.140;2022-07-04T09:51:51;26.40;53.80
32594;DHT22;19018;49.046;9.140;2022-07-04T09:54:13;26.40;53.60
32594;DHT22;19018;49.046;9.140;2022-07-04T09:56:43;26.50;53.80
32594;DHT22;19018;49.046;9.140;2022-07-04T09:59:09;26.60;53.90
32594;DHT22;19018;49.046;9.140;2022-07-04T10:01:34;26.60;53.90
32594;DHT22;19018;49.046;9.140;2022-07-04T10:04:01;26.70;54.00
32594;DHT22;19018;49.046;9.140;2022-07-04T10:06:31;26.70;53.70
32594;DHT22;19018;49.046;9.140;2022-07-04T10:09:05;26.80;53.50
32594;DHT22;19018;49.046;9.140;2022-07-04T10:11:34;26.90;54.00
32594;DHT22;19018;49.046;9.140;2022-07-04T10:14:00;27.00;54.10
32594;DHT22;19018;49.046;9.140;2022-07-04T10:18:52;27.10;54.10
32594;DHT22;19018;49.046;9.140;2022-07-04T10:21:19;27.20;54.60
32594;DHT22;19018;49.046;9.140;2022-07-04T10:23:45;27.30;54.00
32594;DHT22;19018;49.046;9.140;2022-07-04T10:26:11;27.40;54.10
32594;DHT22;19018;49.046;9.140;2022-07-04T10:28:37;27.40;54.10
32594;DHT22;19018;49.046;9.140;2022-07-04T10:31:03;27.50;54.30
32594;DHT22;19018;49.046;9.140;2022-07-04T10:33:29;27.60;54.30
32594;DHT22;19018;49.046;9.140;2022-07-04T10:35:59;27.70;54.10
32594;DHT22;19018;49.046;9.140;2022-07-04T10:38:29;27.80;54.10
32594;DHT22;19018;49.046;9.140;2022-07-04T10:40:56;27.80;54.10
32594;DHT22;19018;49.046;9.140;2022-07-04T10:46:11;27.90;53.80
32594;DHT22;19018;49.046;9.140;2022-07-04T10:51:10;28.00;53.40
32594;DHT22;19018;49.046;9.140;2022-07-04T10:53:56;28.10;53.60
32594;DHT22;19018;49.046;9.140;2022-07-04T11:01:19;28.30;53.80
32594;DHT22;19018;49.046;9.140;2022-07-04T11:03:49;28.40;53.80
32594;DHT22;19018;49.046;9.140;2022-07-04T11:12:01;28.60;53.70
32594;DHT22;19018;49.046;9.140;2022-07-04T11:14:46;28.70;53.80
32594;DHT22;19018;49.046;9.140;2022-07-04T11:17:19;28.70;53.80
32594;DHT22;19018;49.046;9.140;2022-07-04T11:19:45;28.70;53.80
32594;DHT22;19018;49.046;9.140;2022-07-04T11:22:10;28.80;53.20
32594;DHT22;19018;49.046;9.140;2022-07-04T11:24:39;28.80;53.10
32594;DHT22;19018;49.046;9.140;2022-07-04T11:27:08;28.90;53.30
32594;DHT22;19018;49.046;9.140;2022-07-04T11:29:34;28.90;53.00
32594;DHT22;19018;49.046;9.140;2022-07-04T11:32:00;28.90;53.20
32594;DHT22;19018;49.046;9.140;2022-07-04T11:34:32;29.00;53.30
32594;DHT22;19018;49.046;9.140;2022-07-04T11:36:58;29.00;52.90
32594;DHT22;19018;49.046;9.140;2022-07-04T11:39:26;29.00;53.00
32594;DHT22;19018;49.046;9.140;2022-07-04T11:41:52;29.10;52.90
32594;DHT22;19018;49.046;9.140;2022-07-04T11:44:37;29.10;53.00
32594;DHT22;19018;49.046;9.140;2022-07-04T11:49:55;29.10;51.00
32594;DHT22;19018;49.046;9.140;2022-07-04T11:52:22;29.10;52.20
32594;DHT22;19018;49.046;9.140;2022-07-04T11:54:48;29.10;52.30
32594;DHT22;19018;49.046;9.140;2022-07-04T11:57:21;29.10;52.60
32594;DHT22;19018;49.046;9.140;2022-07-04T11:59:55;29.10;52.60
32594;DHT22;19018;49.046;9.140;2022-07-04T12:02:20;29.20;52.80
32594;DHT22;19018;49.046;9.140;2022-07-04T12:04:46;29.20;52.90
32594;DHT22;19018;49.046;9.140;2022-07-04T12:07:12;29.20;52.90
32594;DHT22;19018;49.046;9.140;2022-07-04T12:09:39;29.30;52.60
32594;DHT22;19018;49.046;9.140;2022-07-04T12:12:04;29.30;52.20
32594;DHT22;19018;49.046;9.140;2022-07-04T12:14:30;29.30;52.80
32594;DHT22;19018;49.046;9.140;2022-07-04T12:17:12;29.30;52.90
32594;DHT22;19018;49.046;9.140;2022-07-04T12:19:48;29.40;52.90
32594;DHT22;19018;49.046;9.140;2022-07-04T12:22:23;29.40;52.80
32594;DHT22;19018;49.046;9.140;2022-07-04T12:24:49;29.40;52.80
32594;DHT22;19018;49.046;9.140;2022-07-04T12:27:17;29.50;52.60
32594;DHT22;19018;49.046;9.140;2022-07-04T12:29:49;29.50;52.60
32594;DHT22;19018;49.046;9.140;2022-07-04T12:32:15;29.50;52.60
32594;DHT22;19018;49.046;9.140;2022-07-04T12:34:41;29.50;52.40
32594;DHT22;19018;49.046;9.140;2022-07-04T12:37:10;29.50;52.30
32594;DHT22;19018;49.046;9.140;2022-07-04T12:39:37;29.50;52.50
32594;DHT22;19018;49.046;9.140;2022-07-04T12:42:08;29.50;52.60
32594;DHT22;19018;49.046;9.140;2022-07-04T12:44:35;29.50;52.00
32594;DHT22;19018;49.046;9.140;2022-07-04T12:47:02;29.50;52.50
32594;DHT22;19018;49.046;9.140;2022-07-04T12:49:27;29.50;52.50
32594;DHT22;19018;49.046;9.140;2022-07-04T12:52:03;29.50;52.60
32594;DHT22;19018;49.046;9.140;2022-07-04T12:54:28;29.60;52.70
32594;DHT22;19018;49.046;9.140;2022-07-04T12:57:02;29.60;52.60
32594;DHT22;19018;49.046;9.140;2022-07-04T12:59:28;29.60;52.70
32594;DHT22;19018;49.046;9.140;2022-07-04T13:01:53;29.60;52.40
32594;DHT22;19018;49.046;9.140;2022-07-04T13:04:19;29.60;52.10
32594;DHT22;19018;49.046;9.140;2022-07-04T13:06:44;29.60;52.40
32594;DHT22;19018;49.046;9.140;2022-07-04T13:09:10;29.60;51.20
32594;DHT22;19018;49.046;9.140;2022-07-04T13:11:36;29.70;52.30
32594;DHT22;19018;49.046;9.140;2022-07-04T13:14:20;29.70;52.30
32594;DHT22;19018;49.046;9.140;2022-07-04T13:16:46;29.70;52.30
32594;DHT22;19018;49.046;9.140;2022-07-04T13:19:11;29.70;51.60
32594;DHT22;19018;49.046;9.140;2022-07-04T13:21:37;29.80;52.10
32594;DHT22;19018;49.046;9.140;2022-07-04T13:24:02;29.80;52.10
32594;DHT22;19018;49.046;9.140;2022-07-04T13:26:28;29.80;52.20
32594;DHT22;19018;49.046;9.140;2022-07-04T13:28:56;29.80;51.70
32594;DHT22;19018;49.046;9.140;2022-07-04T13:31:24;29.80;52.00
32594;DHT22;19018;49.046;9.140;2022-07-04T13:33:50;29.80;51.90
32594;DHT22;19018;49.046;9.140;2022-07-04T13:36:15;29.70;51.90
32594;DHT22;19018;49.046;9.140;2022-07-04T13:38:43;29.80;52.10
32594;DHT22;19018;49.046;9.140;2022-07-04T13:41:09;29.80;52.00
32594;DHT22;19018;49.046;9.140;2022-07-04T13:43:34;29.80;52.10
32594;DHT22;19018;49.046;9.140;2022-07-04T13:46:00;29.80;52.20
32594;DHT22;19018;49.046;9.140;2022-07-04T13:48:25;29.70;51.80
32594;DHT22;19018;49.046;9.140;2022-07-04T13:50:51;29.90;52.20
32594;DHT22;19018;49.046;9.140;2022-07-04T13:53:17;29.80;52.20
32594;DHT22;19018;49.046;9.140;2022-07-04T13:55:42;29.90;52.00
32594;DHT22;19018;49.046;9.140;2022-07-04T13:58:09;29.80;51.90
32594;DHT22;19018;49.046;9.140;2022-07-04T14:00:35;29.90;52.10
32594;DHT22;19018;49.046;9.140;2022-07-04T14:03:01;29.90;51.60
32594;DHT22;19018;49.046;9.140;2022-07-04T14:05:27;29.90;51.70
32594;DHT22;19018;49.046;9.140;2022-07-04T14:07:53;29.90;51.50
32594;DHT22;19018;49.046;9.140;2022-07-04T14:10:19;29.90;51.70
32594;DHT22;19018;49.046;9.140;2022-07-04T14:12:44;29.90;51.90
32594;DHT22;19018;49.046;9.140;2022-07-04T14:15:10;29.90;51.10
32594;DHT22;19018;49.046;9.140;2022-07-04T14:17:36;29.90;51.50
32594;DHT22;19018;49.046;9.140;2022-07-04T14:20:05;29.90;51.60
32594;DHT22;19018;49.046;9.140;2022-07-04T14:22:32;29.90;50.60
32594;DHT22;19018;49.046;9.140;2022-07-04T14:24:58;29.80;50.90
32594;DHT22;19018;49.046;9.140;2022-07-04T14:27:23;29.90;50.90
32594;DHT22;19018;49.046;9.140;2022-07-04T14:29:49;29.90;51.30
32594;DHT22;19018;49.046;9.140;2022-07-04T14:32:15;29.80;51.30
32594;DHT22;19018;49.046;9.140;2022-07-04T14:34:40;29.80;51.10
32594;DHT22;19018;49.046;9.140;2022-07-04T14:37:06;29.80;51.40
32594;DHT22;19018;49.046;9.140;2022-07-04T14:39:31;29.80;50.40
32594;DHT22;19018;49.046;9.140;2022-07-04T14:41:57;29.80;50.10
32594;DHT22;19018;49.046;9.140;2022-07-04T14:44:22;29.80;50.30
32594;DHT22;19018;49.046;9.140;2022-07-04T14:46:48;29.80;50.50
32594;DHT22;19018;49.046;9.140;2022-07-04T14:49:14;29.70;48.60
32594;DHT22;19018;49.046;9.140;2022-07-04T14:51:39;29.70;47.90
32594;DHT22;19018;49.046;9.140;2022-07-04T14:54:06;29.70;49.10
32594;DHT22;19018;49.046;9.140;2022-07-04T14:56:32;29.70;49.80
32594;DHT22;19018;49.046;9.140;2022-07-04T14:58:58;29.60;50.10
32594;DHT22;19018;49.046;9.140;2022-07-04T15:01:23;29.60;48.80
32594;DHT22;19018;49.046;9.140;2022-07-04T15:03:49;29.60;49.10
32594;DHT22;19018;49.046;9.140;2022-07-04T15:06:14;29.60;48.40
32594;DHT22;19018;49.046;9.140;2022-07-04T15:08:40;29.60;48.50
32594;DHT22;19018;49.046;9.140;2022-07-04T15:11:05;29.50;47.80
32594;DHT22;19018;49.046;9.140;2022-07-04T15:13:31;29.50;48.70
32594;DHT22;19018;49.046;9.140;2022-07-04T15:15:57;29.50;49.10
32594;DHT22;19018;49.046;9.140;2022-07-04T15:18:22;29.50;48.50
32594;DHT22;19018;49.046;9.140;2022-07-04T15:20:48;29.40;49.10
32594;DHT22;19018;49.046;9.140;2022-07-04T15:23:32;29.40;47.70
32594;DHT22;19018;49.046;9.140;2022-07-04T15:26:16;29.40;48.60
32594;DHT22;19018;49.046;9.140;2022-07-04T15:28:41;29.40;49.30
32594;DHT22;19018;49.046;9.140;2022-07-04T15:31:07;29.30;48.60
32594;DHT22;19018;49.046;9.140;2022-07-04T15:33:32;29.30;49.00
32594;DHT22;19018;49.046;9.140;2022-07-04T15:35:59;29.30;48.80
32594;DHT22;19018;49.046;9.140;2022-07-04T15:38:24;29.20;48.40
32594;DHT22;19018;49.046;9.140;2022-07-04T15:40:50;29.20;49.00
32594;DHT22;19018;49.046;9.140;2022-07-04T15:45:42;29.10;46.70
32594;DHT22;19018;49.046;9.140;2022-07-04T15:48:08;29.10;47.60
32594;DHT22;19018;49.046;9.140;2022-07-04T15:50:34;29.10;48.30
32594;DHT22;19018;49.046;9.140;2022-07-04T15:55:25;29.10;48.40
32594;DHT22;19018;49.046;9.140;2022-07-04T15:57:51;29.00;48.60
32594;DHT22;19018;49.046;9.140;2022-07-04T16:00:17;29.00;48.30
32594;DHT22;19018;49.046;9.140;2022-07-04T16:02:43;28.90;48.70
32594;DHT22;19018;49.046;9.140;2022-07-04T16:05:09;28.90;48.30
32594;DHT22;19018;49.046;9.140;2022-07-04T16:07:36;28.90;48.20
32594;DHT22;19018;49.046;9.140;2022-07-04T16:10:02;28.90;47.80
32594;DHT22;19018;49.046;9.140;2022-07-04T16:12:28;28.90;48.20
32594;DHT22;19018;49.046;9.140;2022-07-04T16:14:53;28.80;47.70
32594;DHT22;19018;49.046;9.140;2022-07-04T16:17:19;28.80;48.60